createdAt,value
2023-05-01T00:01:06.160Z,4.70
2023-05-01T00:03:33.858Z,4.60
2023-05-01T00:06:02.152Z,3.93
2023-05-01T00:08:29.786Z,4.80
2023-05-01T00:10:57.252Z,5.03
2023-05-01T00:13:26.527Z,4.83
2023-05-01T00:15:55.704Z,4.93
2023-05-01T00:18:23.191Z,4.60
2023-05-01T00:20:50.994Z,4.63
2023-05-01T00:23:18.507Z,4.63
2023-05-01T00:25:46.031Z,5.00
2023-05-01T00:28:13.502Z,5.10
2023-05-01T00:30:42.410Z,4.70
2023-05-01T00:33:10.175Z,5.33
2023-05-01T00:35:38.031Z,5.57
2023-05-01T00:38:05.678Z,4.80
2023-05-01T00:40:33.132Z,5.73
2023-05-01T00:43:00.576Z,5.37
2023-05-01T00:45:28.172Z,5.73
2023-05-01T00:47:57.095Z,5.00
2023-05-01T00:50:24.611Z,5.23
2023-05-01T00:52:53.136Z,5.77
2023-05-01T00:55:21.476Z,5.43
2023-05-01T00:57:49.085Z,5.20
2023-05-01T01:00:17.483Z,5.27
2023-05-01T01:02:45.024Z,5.40
2023-05-01T01:05:13.956Z,5.37
2023-05-01T01:07:51.133Z,5.10
2023-05-01T01:10:28.628Z,5.13
2023-05-01T01:13:05.330Z,5.03
2023-05-01T01:15:37.029Z,5.10
2023-05-01T01:18:11.023Z,5.23
2023-05-01T01:20:45.623Z,5.27
2023-05-01T01:23:28.853Z,5.20
2023-05-01T01:26:39.146Z,5.70
2023-05-01T01:29:38.204Z,5.30
2023-05-01T01:32:20.604Z,5.23
2023-05-01T01:34:53.052Z,5.20
2023-05-01T01:37:23.908Z,5.57
2023-05-01T01:39:58.991Z,5.43
2023-05-01T01:42:31.513Z,6.07
2023-05-01T01:45:04.923Z,5.67
2023-05-01T01:47:34.812Z,5.43
2023-05-01T01:50:08.200Z,5.77
2023-05-01T01:52:38.099Z,5.80
2023-05-01T01:55:09.359Z,5.97
2023-05-01T01:57:39.575Z,5.53
2023-05-01T02:00:11.460Z,5.87
2023-05-01T02:02:40.994Z,5.60
2023-05-01T02:05:14.476Z,6.13
2023-05-01T02:07:44.262Z,6.07
2023-05-01T02:10:14.904Z,6.27
2023-05-01T02:12:45.512Z,6.50
2023-05-01T02:15:14.824Z,6.70
2023-05-01T02:17:42.816Z,7.00
2023-05-01T02:20:13.341Z,6.23
2023-05-01T02:22:41.940Z,6.13
2023-05-01T02:25:12.426Z,6.80
2023-05-01T02:27:44.681Z,6.50
2023-05-01T02:30:13.426Z,6.70
2023-05-01T02:32:41.317Z,6.30
2023-05-01T02:35:09.196Z,6.73
2023-05-01T02:37:38.661Z,6.73
2023-05-01T02:40:08.159Z,6.80
2023-05-01T02:42:36.265Z,6.60
2023-05-01T02:45:06.405Z,6.87
2023-05-01T02:47:37.869Z,7.10
2023-05-01T02:50:09.062Z,7.20
2023-05-01T02:52:38.816Z,6.90
2023-05-01T02:55:07.206Z,7.27
2023-05-01T02:57:34.755Z,6.97
2023-05-01T03:00:02.217Z,6.90
2023-05-01T03:02:29.858Z,7.37
2023-05-01T03:04:57.285Z,7.47
2023-05-01T03:07:24.746Z,7.37
2023-05-01T03:09:53.631Z,7.97
2023-05-01T03:12:21.669Z,7.60
2023-05-01T03:14:49.127Z,7.53
2023-05-01T03:17:16.568Z,8.07
2023-05-01T03:19:44.043Z,7.97
2023-05-01T03:22:11.488Z,8.20
2023-05-01T03:24:38.920Z,7.63
2023-05-01T03:27:07.824Z,8.17
2023-05-01T03:29:37.868Z,8.60
2023-05-01T03:32:05.910Z,8.37
2023-05-01T03:34:34.148Z,7.60
2023-05-01T03:37:01.590Z,8.20
2023-05-01T03:39:29.029Z,8.87
2023-05-01T03:41:56.462Z,8.50
2023-05-01T03:44:25.303Z,8.97
2023-05-01T03:46:52.829Z,9.03
2023-05-01T03:49:20.541Z,8.80
2023-05-01T03:51:47.979Z,8.07
2023-05-01T03:54:15.424Z,8.30
2023-05-01T03:56:42.882Z,9.00
2023-05-01T03:59:10.416Z,8.90
2023-05-01T04:01:39.825Z,9.30
2023-05-01T04:04:08.075Z,8.70
2023-05-01T04:06:36.167Z,8.03
2023-05-01T04:09:03.970Z,8.90
2023-05-01T04:11:31.400Z,8.93
2023-05-01T04:13:58.884Z,8.90
2023-05-01T04:16:26.465Z,8.97
2023-05-01T04:18:55.289Z,8.57
2023-05-01T04:21:22.910Z,8.57
2023-05-01T04:23:50.411Z,7.97
2023-05-01T04:26:18.071Z,8.43
2023-05-01T04:28:45.522Z,7.90
2023-05-01T04:31:13.717Z,8.63
2023-05-01T04:33:41.208Z,8.23
2023-05-01T04:36:10.057Z,7.97
2023-05-01T04:38:38.110Z,7.10
2023-05-01T04:41:06.051Z,8.80
2023-05-01T04:43:33.580Z,7.17
2023-05-01T04:46:01.037Z,7.53
2023-05-01T04:48:28.521Z,8.40
2023-05-01T04:50:56.038Z,7.93
2023-05-01T04:53:24.844Z,7.87
2023-05-01T04:55:52.356Z,8.03
2023-05-01T04:58:19.800Z,7.70
2023-05-01T05:00:47.258Z,7.60
2023-05-01T05:03:15.495Z,8.90
2023-05-01T05:05:43.080Z,7.73
2023-05-01T05:08:10.680Z,7.53
2023-05-01T05:10:39.452Z,7.80
2023-05-01T05:13:06.912Z,7.87
2023-05-01T05:15:34.360Z,7.90
2023-05-01T05:18:02.227Z,8.40
2023-05-01T05:20:29.774Z,8.03
2023-05-01T05:22:57.293Z,7.73
2023-05-01T05:25:25.285Z,8.07
2023-05-01T05:27:54.149Z,7.43
2023-05-01T05:30:21.641Z,8.60
2023-05-01T05:32:49.192Z,8.50
2023-05-01T05:35:16.940Z,8.98
2023-05-01T05:37:46.120Z,9.05
2023-05-01T05:40:14.410Z,8.45
2023-05-01T05:42:41.852Z,8.30
2023-05-01T05:45:11.219Z,8.43
2023-05-01T05:47:39.120Z,8.02
2023-05-01T05:50:07.993Z,7.70
2023-05-01T05:52:35.481Z,8.38
2023-05-01T05:55:03.001Z,7.18
2023-05-01T05:57:30.444Z,7.78
2023-05-01T05:59:58.367Z,8.85
2023-05-01T06:02:27.470Z,7.80
2023-05-01T06:04:56.410Z,8.55
2023-05-01T06:07:23.900Z,7.88
2023-05-01T06:09:51.343Z,7.75
2023-05-01T06:12:18.785Z,8.80
2023-05-01T06:14:46.741Z,7.93
2023-05-01T06:17:15.070Z,8.55
2023-05-01T06:19:43.845Z,8.38
2023-05-01T06:22:11.287Z,8.45
2023-05-01T06:24:39.727Z,8.07
2023-05-01T06:27:07.291Z,8.55
2023-05-01T06:29:34.728Z,8.93
2023-05-01T06:32:02.182Z,8.50
2023-05-01T06:34:29.629Z,8.20
2023-05-01T06:36:58.409Z,9.15
2023-05-01T06:39:25.873Z,8.35
2023-05-01T06:41:53.301Z,8.80
2023-05-01T06:44:20.803Z,8.57
2023-05-01T06:46:48.300Z,8.73
2023-05-01T06:49:15.837Z,8.70
2023-05-01T06:51:43.353Z,8.10
2023-05-01T06:54:12.334Z,8.27
2023-05-01T06:56:40.006Z,8.80
2023-05-01T06:59:07.443Z,9.10
2023-05-01T07:01:35.731Z,7.70
2023-05-01T07:04:03.939Z,8.10
2023-05-01T07:06:32.224Z,8.95
2023-05-01T07:08:59.720Z,8.77
2023-05-01T07:11:28.529Z,8.57
2023-05-01T07:13:56.338Z,9.20
2023-05-01T07:16:23.790Z,8.52
2023-05-01T07:18:51.331Z,8.57
2023-05-01T07:21:18.850Z,8.68
2023-05-01T07:23:46.337Z,8.45
2023-05-01T07:26:13.816Z,8.38
2023-05-01T07:28:42.597Z,8.65
2023-05-01T07:31:10.754Z,8.95
2023-05-01T07:33:38.266Z,8.50
2023-05-01T07:36:05.870Z,8.50
2023-05-01T07:38:33.527Z,8.75
2023-05-01T07:41:01.011Z,8.77
2023-05-01T07:43:28.446Z,8.25
2023-05-01T07:45:58.805Z,8.18
2023-05-01T07:48:26.974Z,8.00
2023-05-01T07:50:55.091Z,7.47
2023-05-01T07:53:23.447Z,8.35
2023-05-01T07:55:51.038Z,7.72
2023-05-01T07:58:18.976Z,7.38
2023-05-01T08:00:46.436Z,7.18
2023-05-01T08:03:15.351Z,6.88
2023-05-01T08:05:43.204Z,6.75
2023-05-01T08:08:10.706Z,6.68
2023-05-01T08:10:38.153Z,6.05
2023-05-01T08:13:05.592Z,5.80
2023-05-01T08:15:33.045Z,5.88
2023-05-01T08:18:00.597Z,5.47
2023-05-01T08:20:29.551Z,5.97
2023-05-01T08:22:57.005Z,5.80
2023-05-01T08:25:24.598Z,5.50
2023-05-01T08:27:52.601Z,6.00
2023-05-01T08:30:20.509Z,5.82
2023-05-01T08:32:49.170Z,5.75
2023-05-01T08:35:16.837Z,5.47
2023-05-01T08:37:45.620Z,4.30
2023-05-01T08:40:13.411Z,4.40
2023-05-01T08:42:40.866Z,4.00
2023-05-01T08:45:10.085Z,3.50
2023-05-01T08:47:39.276Z,3.75
2023-05-01T08:50:12.139Z,3.63
2023-05-01T08:52:42.091Z,4.43
2023-05-01T08:55:13.589Z,3.50
2023-05-01T08:57:46.809Z,3.90
2023-05-01T09:00:19.464Z,3.67
2023-05-01T09:02:49.357Z,3.80
2023-05-01T09:05:17.939Z,3.70
2023-05-01T09:07:46.512Z,4.43
2023-05-01T09:10:17.873Z,3.72
2023-05-01T09:12:51.665Z,3.80
2023-05-01T09:15:19.177Z,3.53
2023-05-01T09:17:46.711Z,3.67
2023-05-01T09:20:14.539Z,3.92
2023-05-01T09:22:42.117Z,3.72
2023-05-01T09:25:10.851Z,3.72
2023-05-01T09:27:40.227Z,3.55
2023-05-01T09:30:09.437Z,3.72
2023-05-01T09:32:36.945Z,4.20
2023-05-01T09:35:12.202Z,3.85
2023-05-01T09:37:40.539Z,4.00
2023-05-01T09:40:09.666Z,4.00
2023-05-01T09:42:40.697Z,4.30
2023-05-01T09:45:14.086Z,3.70
2023-05-01T09:47:42.530Z,3.92
2023-05-01T09:50:11.275Z,3.72
2023-05-01T09:52:38.801Z,3.85
2023-05-01T09:55:14.584Z,3.60
2023-05-01T09:57:45.228Z,3.30
2023-05-01T10:00:15.381Z,3.55
2023-05-01T10:02:45.212Z,3.50
2023-05-01T10:05:13.841Z,3.17
2023-05-01T10:07:42.968Z,3.60
2023-05-01T10:10:17.889Z,3.45
2023-05-01T10:12:46.730Z,3.78
2023-05-01T10:15:24.478Z,3.53
2023-05-01T10:17:52.936Z,4.40
2023-05-01T10:20:20.845Z,3.78
2023-05-01T10:22:48.847Z,4.88
2023-05-01T10:25:18.718Z,10.43
2023-05-01T10:27:48.411Z,3.95
2023-05-01T10:30:18.065Z,3.63
2023-05-01T10:32:47.254Z,3.75
2023-05-01T10:35:20.314Z,3.17
2023-05-01T10:37:49.258Z,3.60
2023-05-01T10:40:44.803Z,3.47
2023-05-01T10:43:18.356Z,3.50
2023-05-01T10:45:47.017Z,3.45
2023-05-01T10:48:52.104Z,3.83
2023-05-01T10:51:21.261Z,3.92
2023-05-01T10:53:50.389Z,3.85
2023-05-01T10:56:44.000Z,3.55
2023-05-01T10:59:12.998Z,4.00
2023-05-01T11:01:41.684Z,4.22
2023-05-01T11:04:53.939Z,3.58
2023-05-01T11:07:23.574Z,3.80
2023-05-01T11:09:54.978Z,3.90
2023-05-01T11:12:54.425Z,4.18
2023-05-01T11:15:32.137Z,3.88
2023-05-01T11:18:00.091Z,3.70
2023-05-01T11:20:50.491Z,3.70
2023-05-01T11:23:21.982Z,3.63
2023-05-01T11:25:52.772Z,3.65
2023-05-01T11:28:22.520Z,3.40
2023-05-01T11:30:51.705Z,3.83
2023-05-01T11:33:28.461Z,3.83
2023-05-01T11:36:00.635Z,3.80
2023-05-01T11:38:28.334Z,3.85
2023-05-01T11:40:59.052Z,3.97
2023-05-01T11:43:26.760Z,3.72
2023-05-01T11:46:03.827Z,3.72
2023-05-01T11:48:32.454Z,3.53
2023-05-01T11:51:00.155Z,3.70
2023-05-01T11:53:27.678Z,4.30
2023-05-01T11:55:55.298Z,3.53
2023-05-01T11:58:33.790Z,3.33
2023-05-01T12:01:03.265Z,3.60
2023-05-01T12:03:42.284Z,3.40
2023-05-01T12:06:10.997Z,3.85
2023-05-01T12:08:42.696Z,3.72
2023-05-01T12:11:10.470Z,3.22
2023-05-01T12:13:40.142Z,3.20
2023-05-01T12:16:09.431Z,3.50
2023-05-01T12:18:37.211Z,3.28
2023-05-01T12:21:04.743Z,3.60
2023-05-01T12:23:34.835Z,2.83
2023-05-01T12:26:03.867Z,3.33
2023-05-01T12:28:31.977Z,3.17
2023-05-01T12:31:05.264Z,3.35
2023-05-01T12:33:34.421Z,3.72
2023-05-01T12:36:11.842Z,3.25
2023-05-01T12:38:39.457Z,3.08
2023-05-01T12:41:09.444Z,3.40
2023-05-01T12:43:38.531Z,3.30
2023-05-01T12:46:07.626Z,3.70
2023-05-01T12:48:40.075Z,3.10
2023-05-01T12:51:07.971Z,2.97
2023-05-01T12:53:35.625Z,3.33
2023-05-01T12:56:03.372Z,3.17
2023-05-01T12:58:37.805Z,3.03
2023-05-01T13:01:06.272Z,3.33
2023-05-01T13:03:40.098Z,3.20
2023-05-01T13:06:09.024Z,3.40
2023-05-01T13:08:39.650Z,3.42
2023-05-01T13:11:13.024Z,3.35
2023-05-01T13:13:41.003Z,3.55
2023-05-01T13:16:12.421Z,3.40
2023-05-01T13:18:46.242Z,3.90
2023-05-01T13:21:16.694Z,4.35
2023-05-01T13:23:53.908Z,4.50
2023-05-01T13:26:27.491Z,4.60
2023-05-01T13:28:55.388Z,4.82
2023-05-01T13:31:22.887Z,6.07
2023-05-01T13:33:54.183Z,4.88
2023-05-01T13:36:26.875Z,5.22
2023-05-01T13:38:56.988Z,4.53
2023-05-01T13:41:26.685Z,5.30
2023-05-01T13:43:55.504Z,5.30
2023-05-01T13:46:24.521Z,5.78
2023-05-01T13:48:53.569Z,5.82
2023-05-01T13:51:23.157Z,6.40
2023-05-01T13:53:50.910Z,6.15
2023-05-01T13:56:18.505Z,7.47
2023-05-01T13:58:46.308Z,7.03
2023-05-01T14:01:16.364Z,7.70
2023-05-01T14:03:44.399Z,7.22
2023-05-01T14:06:15.110Z,6.80
2023-05-01T14:08:43.200Z,7.20
2023-05-01T14:11:11.628Z,7.28
2023-05-01T14:13:41.815Z,7.20
2023-05-01T14:16:11.470Z,6.90
2023-05-01T14:18:45.496Z,7.45
2023-05-01T14:21:16.225Z,7.07
2023-05-01T14:23:44.218Z,7.28
2023-05-01T14:26:12.967Z,7.30
2023-05-01T14:28:43.046Z,7.72
2023-05-01T14:31:10.673Z,8.40
2023-05-01T14:33:43.187Z,8.02
2023-05-01T14:36:10.702Z,7.88
2023-05-01T14:38:41.486Z,8.90
2023-05-01T14:41:12.926Z,9.10
2023-05-01T14:43:42.245Z,8.93
2023-05-01T14:46:09.773Z,9.45
2023-05-01T14:48:38.009Z,8.57
2023-05-01T14:51:06.593Z,8.85
2023-05-01T14:53:34.512Z,9.23
2023-05-01T14:56:03.316Z,9.38
2023-05-01T14:58:30.811Z,8.52
2023-05-01T15:00:58.339Z,9.45
2023-05-01T15:03:25.933Z,8.07
2023-05-01T15:05:53.609Z,7.75
2023-05-01T15:08:21.047Z,6.95
2023-05-01T15:10:48.515Z,6.90
2023-05-01T15:13:17.504Z,6.80
2023-05-01T15:15:44.967Z,7.07
2023-05-01T15:18:12.503Z,7.25
2023-05-01T15:20:40.090Z,6.05
2023-05-01T15:23:07.574Z,7.15
2023-05-01T15:25:35.024Z,6.57
2023-05-01T15:28:03.407Z,7.07
2023-05-01T15:30:32.388Z,6.57
2023-05-01T15:32:59.926Z,6.97
2023-05-01T15:35:27.636Z,7.55
2023-05-01T15:37:56.430Z,7.32
2023-05-01T15:40:23.906Z,6.93
2023-05-01T15:42:51.645Z,6.68
2023-05-01T15:45:19.850Z,6.50
2023-05-01T15:47:48.789Z,7.03
2023-05-01T15:50:16.296Z,6.93
2023-05-01T15:52:43.777Z,6.95
2023-05-01T15:55:12.655Z,7.15
2023-05-01T15:57:40.103Z,6.85
2023-05-01T16:00:10.526Z,7.22
2023-05-01T16:02:38.150Z,7.07
2023-05-01T16:05:08.458Z,6.80
2023-05-01T16:07:35.958Z,7.20
2023-05-01T16:10:03.762Z,6.88
2023-05-01T16:12:32.000Z,6.75
2023-05-01T16:15:02.196Z,6.95
2023-05-01T16:17:32.908Z,7.03
2023-05-01T16:20:01.528Z,6.07
2023-05-01T16:22:33.224Z,6.57
2023-05-01T16:25:01.184Z,6.57
2023-05-01T16:27:28.672Z,6.43
2023-05-01T16:29:56.210Z,6.60
2023-05-01T16:32:24.732Z,5.80
2023-05-01T16:34:52.295Z,6.40
2023-05-01T16:37:22.544Z,6.63
2023-05-01T16:39:51.700Z,6.75
2023-05-01T16:42:19.197Z,6.85
2023-05-01T16:44:46.759Z,7.32
2023-05-01T16:47:14.207Z,6.65
2023-05-01T16:49:42.695Z,6.82
2023-05-01T16:52:14.003Z,6.70
2023-05-01T16:54:41.524Z,6.82
2023-05-01T16:57:10.711Z,6.55
2023-05-01T16:59:38.578Z,6.45
2023-05-01T17:02:06.741Z,6.75
2023-05-01T17:04:34.306Z,6.90
2023-05-01T17:07:01.847Z,6.97
2023-05-01T17:09:29.391Z,7.30
2023-05-01T17:11:57.474Z,7.53
2023-05-01T17:14:28.561Z,7.25
2023-05-01T17:16:56.196Z,7.57
2023-05-01T17:19:23.851Z,7.03
2023-05-01T17:21:51.367Z,7.13
2023-05-01T17:24:18.979Z,7.40
2023-05-01T17:26:46.666Z,7.55
2023-05-01T17:29:14.107Z,7.50
2023-05-01T17:31:42.962Z,6.95
2023-05-01T17:34:10.429Z,7.20
2023-05-01T17:36:37.880Z,7.30
2023-05-01T17:39:05.315Z,8.45
2023-05-01T17:41:32.855Z,8.05
2023-05-01T17:44:00.402Z,8.27
2023-05-01T17:46:27.988Z,8.98
2023-05-01T17:48:57.217Z,8.43
2023-05-01T17:51:24.732Z,7.88
2023-05-01T17:53:52.837Z,9.25
2023-05-01T17:56:21.313Z,9.25
2023-05-01T17:58:48.749Z,8.88
2023-05-01T18:01:16.247Z,9.05
2023-05-01T18:03:43.877Z,8.65
2023-05-01T18:06:13.268Z,9.23
2023-05-01T18:08:41.409Z,9.00
2023-05-01T18:11:09.433Z,8.50
2023-05-01T18:13:39.532Z,9.00
2023-05-01T18:16:07.071Z,8.60
2023-05-01T18:18:34.570Z,8.40
2023-05-01T18:21:02.044Z,7.95
2023-05-01T18:23:30.893Z,8.25
2023-05-01T18:25:58.513Z,8.75
2023-05-01T18:28:26.888Z,8.98
2023-05-01T18:30:54.394Z,8.88
2023-05-01T18:33:22.536Z,8.68
2023-05-01T18:35:50.103Z,8.88
2023-05-01T18:38:17.552Z,8.48
2023-05-01T18:40:47.558Z,9.45
2023-05-01T18:43:15.582Z,9.98
2023-05-01T18:45:43.031Z,10.02
2023-05-01T18:48:11.925Z,10.93
2023-05-01T18:50:39.436Z,10.52
2023-05-01T18:53:06.919Z,10.63
2023-05-01T18:55:35.195Z,10.55
2023-05-01T18:58:04.137Z,11.02
2023-05-01T19:00:31.714Z,11.35
2023-05-01T19:02:59.210Z,10.63
2023-05-01T19:05:26.831Z,11.95
2023-05-01T19:07:58.981Z,11.68
2023-05-01T19:10:26.420Z,12.63
2023-05-01T19:12:53.895Z,12.88
2023-05-01T19:15:22.707Z,13.15
2023-05-01T19:17:50.991Z,13.68
2023-05-01T19:20:18.537Z,15.50
2023-05-01T19:22:46.070Z,13.70
2023-05-01T19:25:13.533Z,13.55
2023-05-01T19:27:42.621Z,13.70
2023-05-01T19:30:10.525Z,14.77
2023-05-01T19:32:39.366Z,13.80
2023-05-01T19:35:07.356Z,14.07
2023-05-01T19:37:34.813Z,14.05
2023-05-01T19:40:02.525Z,13.65
2023-05-01T19:42:31.041Z,14.02
2023-05-01T19:44:58.505Z,14.52
2023-05-01T19:47:26.045Z,14.60
2023-05-01T19:49:54.924Z,14.07
2023-05-01T19:52:22.380Z,13.75
2023-05-01T19:54:49.835Z,14.43
2023-05-01T19:57:17.801Z,14.35
2023-05-01T19:59:45.298Z,14.93
2023-05-01T20:02:12.816Z,15.68
2023-05-01T20:04:40.310Z,15.50
2023-05-01T20:07:09.183Z,15.55
2023-05-01T20:09:36.665Z,14.95
2023-05-01T20:12:04.440Z,15.45
2023-05-01T20:14:34.015Z,15.40
2023-05-01T20:17:01.970Z,16.20
2023-05-01T20:19:29.513Z,16.85
2023-05-01T20:21:56.990Z,15.70
2023-05-01T20:24:25.860Z,16.83
2023-05-01T20:26:53.881Z,16.88
2023-05-01T20:29:21.466Z,16.85
2023-05-01T20:31:50.339Z,16.38
2023-05-01T20:34:17.813Z,17.67
2023-05-01T20:36:45.275Z,17.30
2023-05-01T20:39:12.774Z,17.90
2023-05-01T20:41:41.628Z,17.85
2023-05-01T20:44:09.385Z,17.63
2023-05-01T20:46:37.045Z,18.42
2023-05-01T20:49:05.425Z,17.77
2023-05-01T20:51:33.008Z,18.30
2023-05-01T20:54:00.450Z,16.83
2023-05-01T20:56:27.931Z,17.05
2023-05-01T20:58:56.755Z,15.10
2023-05-01T21:01:24.245Z,15.85
2023-05-01T21:03:51.988Z,16.42
2023-05-01T21:06:19.656Z,13.20
2023-05-01T21:08:48.400Z,12.90
2023-05-01T21:11:15.890Z,12.32
2023-05-01T21:13:43.385Z,12.90
2023-05-01T21:16:15.545Z,12.25
2023-05-01T21:18:43.348Z,12.18
2023-05-01T21:21:11.127Z,13.25
2023-05-01T21:23:46.841Z,13.00
2023-05-01T21:26:15.477Z,12.60
2023-05-01T21:28:43.463Z,12.80
2023-05-01T21:31:13.627Z,13.45
2023-05-01T21:33:45.400Z,12.68
2023-05-01T21:36:14.749Z,13.30
2023-05-01T21:38:42.252Z,12.25
2023-05-01T21:41:10.615Z,12.23
2023-05-01T21:43:38.697Z,12.25
2023-05-01T21:46:06.428Z,12.50
2023-05-01T21:48:36.204Z,12.90
2023-05-01T21:51:04.359Z,13.10
2023-05-01T21:53:33.317Z,13.82
2023-05-01T21:56:01.125Z,13.48
2023-05-01T21:58:29.009Z,12.95
2023-05-01T22:00:56.539Z,13.15
2023-05-01T22:03:24.797Z,13.57
2023-05-01T22:05:53.964Z,13.80
2023-05-01T22:08:21.713Z,15.02
2023-05-01T22:10:49.283Z,16.33
2023-05-01T22:13:16.758Z,15.65
2023-05-01T22:15:44.356Z,16.42
2023-05-01T22:18:13.621Z,17.23
2023-05-01T22:20:41.102Z,16.70
2023-05-01T22:23:09.899Z,16.40
2023-05-01T22:25:37.370Z,17.75
2023-05-01T22:28:05.965Z,19.48
2023-05-01T22:30:34.723Z,19.25
2023-05-01T22:33:02.233Z,18.30
2023-05-01T22:35:30.203Z,18.42
2023-05-01T22:37:57.915Z,17.63
2023-05-01T22:40:26.713Z,17.83
2023-05-01T22:42:54.211Z,15.02
2023-05-01T22:45:21.757Z,15.38
2023-05-01T22:47:49.258Z,16.00
2023-05-01T22:50:16.936Z,15.60
2023-05-01T22:52:46.498Z,17.15
2023-05-01T22:55:14.286Z,18.73
2023-05-01T22:57:43.071Z,20.27
2023-05-01T23:00:13.775Z,21.38
2023-05-01T23:02:41.431Z,21.02
2023-05-01T23:05:10.306Z,21.83
2023-05-01T23:07:38.161Z,21.35
2023-05-01T23:10:06.488Z,23.10
2023-05-01T23:12:34.009Z,23.75
2023-05-01T23:15:02.796Z,23.60
2023-05-01T23:17:34.690Z,23.75
2023-05-01T23:20:02.494Z,23.17
2023-05-01T23:22:30.999Z,22.45
2023-05-01T23:24:58.480Z,23.65
2023-05-01T23:27:26.082Z,22.88
2023-05-01T23:29:56.506Z,22.48
2023-05-01T23:32:27.825Z,23.10
2023-05-01T23:34:56.614Z,23.93
2023-05-01T23:37:24.064Z,23.15
2023-05-01T23:39:53.460Z,23.75
2023-05-01T23:42:22.069Z,24.07
2023-05-01T23:44:49.714Z,21.73
2023-05-01T23:47:17.301Z,21.17
2023-05-01T23:49:46.178Z,22.30
2023-05-01T23:52:13.692Z,21.30
2023-05-01T23:54:41.133Z,18.85
2023-05-01T23:57:08.636Z,19.25
2023-05-01T23:59:36.781Z,18.48
